CheckWX is a tool to help pilots better visualize weather data.  It is not intended as a substitute for an official pre-flight weather briefing.

07:28:06 UTC

MMTO TAF
Licenciado Adolfo Lopez Mateos International Airport
Toluca, Mexico
TAF MMTO 160426Z 1606/1712 00000KT 6SM HZ SCT200 TX24/1621Z TN10/1612Z BECMG 1608/1609 4SM HZ TEMPO 1611/1615 2SM BR FM161800 03010KT 6SM HZ SCT015 SCT200 TEMPO 1622/1702 6SM TSRA BKN015CB

Jun-16@
06:00 UTC

Jun-16 @ 06:00 UTC

Jun-16@
08:00 UTC

Jun-16 @ 08:00 UTC

TAF MMTO 160426Z 1606/1712 00000KT 6SM HZ SCT200 TX24/1621Z TN10/1612Z
Conditions
Haze
Cloud Levels
  • Scattered at 20,000' AGL

Jun-16@
08:00 UTC

Jun-16 @ 08:00 UTC

Jun-16@
18:00 UTC

Jun-16 @ 18:00 UTC

BECMG 1608/1609 4SM HZ

Becoming

Becoming Conditions expected by Sun, Jun 16, 2019 @ 09:00 UTC

Conditions
Haze
Cloud Levels
  • Scattered at 20,000' AGL

Jun-16@
11:00 UTC

Jun-16 @ 11:00 UTC

Jun-16@
15:00 UTC

Jun-16 @ 15:00 UTC

TEMPO 1611/1615 2SM BR

Temporary

Temporary Changes expected for less than half the time period

Conditions
Mist

Jun-16@
18:00 UTC

Jun-16 @ 18:00 UTC

Jun-17@
12:00 UTC

Jun-17 @ 12:00 UTC

FM161800 03010KT 6SM HZ SCT015 SCT200

From

From Standard forecast or significant change

Wind
  • 030° at 10 KTS
Conditions
Haze
Cloud Levels
  • Scattered at 1,500' AGL
  • Scattered at 20,000' AGL

Jun-16@
22:00 UTC

Jun-16 @ 22:00 UTC

Jun-17@
02:00 UTC

Jun-17 @ 02:00 UTC

TEMPO 1622/1702 6SM TSRA BKN015CB

Temporary

Temporary Changes expected for less than half the time period

Conditions
Thunderstorm, Rain
Cloud Levels
  • Broken at 1,500' AGL